createdAt,value
2018-06-21T00:00:55.984Z,7.13
2018-06-21T00:03:24.626Z,6.80
2018-06-21T00:05:54.011Z,7.70
2018-06-21T00:08:22.509Z,7.40
2018-06-21T00:10:51.012Z,8.33
2018-06-21T00:13:19.496Z,7.90
2018-06-21T00:15:48.152Z,7.67
2018-06-21T00:18:16.590Z,8.33
2018-06-21T00:20:45.067Z,8.20
2018-06-21T00:23:13.517Z,8.00
2018-06-21T00:25:41.999Z,8.90
2018-06-21T00:28:10.438Z,9.40
2018-06-21T00:30:38.892Z,7.60
2018-06-21T00:33:07.605Z,9.10
2018-06-21T00:35:36.220Z,7.80
2018-06-21T00:38:04.781Z,8.00
2018-06-21T00:40:33.195Z,8.13
2018-06-21T00:43:01.658Z,8.30
2018-06-21T00:45:30.337Z,9.03
2018-06-21T00:47:58.915Z,8.57
2018-06-21T00:50:27.411Z,8.87
2018-06-21T00:52:55.903Z,9.83
2018-06-21T00:55:35.739Z,8.70
2018-06-21T00:58:04.265Z,10.47
2018-06-21T01:00:32.772Z,9.63
2018-06-21T01:03:01.239Z,9.93
2018-06-21T01:05:29.694Z,9.57
2018-06-21T01:07:58.171Z,9.50
2018-06-21T01:10:26.690Z,10.40
2018-06-21T01:12:56.020Z,10.63
2018-06-21T01:15:24.836Z,11.20
2018-06-21T01:17:53.541Z,10.57
2018-06-21T01:20:22.025Z,11.57
2018-06-21T01:22:50.294Z,9.23
2018-06-21T01:25:18.798Z,10.50
2018-06-21T01:27:47.280Z,11.53
2018-06-21T01:30:15.725Z,10.70
2018-06-21T01:32:44.200Z,11.33
2018-06-21T01:35:12.788Z,10.30
2018-06-21T01:37:41.320Z,11.13
2018-06-21T01:40:09.990Z,11.77
2018-06-21T01:42:39.016Z,10.07
2018-06-21T01:45:07.155Z,10.70
2018-06-21T01:47:35.592Z,11.93
2018-06-21T01:50:04.243Z,13.30
2018-06-21T01:52:32.808Z,12.47
2018-06-21T01:55:01.733Z,12.60
2018-06-21T01:57:30.742Z,12.10
2018-06-21T01:59:59.214Z,12.20
2018-06-21T02:02:27.756Z,12.40
2018-06-21T02:04:56.799Z,12.37
2018-06-21T02:07:25.272Z,12.67
2018-06-21T02:09:53.856Z,12.03
2018-06-21T02:12:22.300Z,12.80
2018-06-21T02:14:51.132Z,11.83
2018-06-21T02:17:19.774Z,12.00
2018-06-21T02:19:48.248Z,12.30
2018-06-21T02:22:16.772Z,12.30
2018-06-21T02:24:45.345Z,11.67
2018-06-21T02:27:14.130Z,12.00
2018-06-21T02:29:42.782Z,11.53
2018-06-21T02:32:11.693Z,12.00
2018-06-21T02:34:40.205Z,11.43
2018-06-21T02:37:08.686Z,12.50
2018-06-21T02:39:37.253Z,9.63
2018-06-21T02:42:06.672Z,10.63
2018-06-21T02:44:35.153Z,11.43
2018-06-21T02:47:03.635Z,12.97
2018-06-21T02:49:32.072Z,10.30
2018-06-21T02:52:00.576Z,10.83
2018-06-21T02:54:29.200Z,10.67
2018-06-21T02:56:58.073Z,11.10
2018-06-21T02:59:26.482Z,10.00
2018-06-21T03:01:54.646Z,9.97
2018-06-21T03:04:23.144Z,10.10
2018-06-21T03:06:51.557Z,8.60
2018-06-21T03:09:20.030Z,9.67
2018-06-21T03:11:48.571Z,9.93
2018-06-21T03:14:18.033Z,9.83
2018-06-21T03:16:46.678Z,9.73
2018-06-21T03:19:15.228Z,9.27
2018-06-21T03:21:43.673Z,8.63
2018-06-21T03:24:12.173Z,9.90
2018-06-21T03:26:40.773Z,8.97
2018-06-21T03:29:09.207Z,8.30
2018-06-21T03:31:37.791Z,8.00
2018-06-21T03:34:06.315Z,8.60
2018-06-21T03:36:34.801Z,7.10
2018-06-21T03:39:03.433Z,7.57
2018-06-21T03:41:31.907Z,7.47
2018-06-21T03:44:00.649Z,8.60
2018-06-21T03:46:29.336Z,7.60
2018-06-21T03:48:57.871Z,8.20
2018-06-21T03:51:26.401Z,8.10
2018-06-21T03:53:54.958Z,8.87
2018-06-21T03:56:23.495Z,8.57
2018-06-21T03:58:52.107Z,9.37
2018-06-21T04:01:20.556Z,8.40
2018-06-21T04:03:49.042Z,9.83
2018-06-21T04:06:17.646Z,9.93
2018-06-21T04:08:46.148Z,9.40
2018-06-21T04:11:14.674Z,10.50
2018-06-21T04:13:43.365Z,9.47
2018-06-21T04:16:11.851Z,8.90
2018-06-21T04:18:40.465Z,8.90
2018-06-21T04:21:10.471Z,9.40
2018-06-21T04:23:38.951Z,9.93
2018-06-21T04:26:07.460Z,10.50
2018-06-21T04:28:35.986Z,10.37
2018-06-21T04:31:04.496Z,9.30
2018-06-21T04:33:32.969Z,9.27
2018-06-21T04:36:02.144Z,10.07
2018-06-21T04:38:30.581Z,10.70
2018-06-21T04:40:59.112Z,14.60
2018-06-21T04:43:27.556Z,15.47
2018-06-21T04:45:56.898Z,14.97
2018-06-21T04:48:25.369Z,16.97
2018-06-21T04:50:53.838Z,16.50
2018-06-21T04:53:22.248Z,17.07
2018-06-21T04:55:50.720Z,15.63
2018-06-21T04:58:19.278Z,17.43
2018-06-21T05:00:47.925Z,16.23
2018-06-21T05:03:16.353Z,17.67
2018-06-21T05:05:44.524Z,16.97
2018-06-21T05:08:13.005Z,16.60
2018-06-21T05:10:41.545Z,15.93
2018-06-21T05:13:10.540Z,15.30
2018-06-21T05:15:39.026Z,14.30
2018-06-21T05:18:07.651Z,13.60
2018-06-21T05:20:36.344Z,14.43
2018-06-21T05:23:05.096Z,14.40
2018-06-21T05:25:33.712Z,14.63
2018-06-21T05:28:02.497Z,15.03
2018-06-21T05:30:30.976Z,14.07
2018-06-21T05:32:59.525Z,13.63
2018-06-21T05:35:28.024Z,16.17
2018-06-21T05:37:56.961Z,17.13
2018-06-21T05:40:31.682Z,17.90
2018-06-21T05:43:01.252Z,17.50
2018-06-21T05:45:29.924Z,17.23
2018-06-21T05:48:00.142Z,17.30
2018-06-21T05:50:29.597Z,21.80
2018-06-21T05:52:59.091Z,19.63
2018-06-21T05:55:28.349Z,21.47
2018-06-21T05:57:56.892Z,21.23
2018-06-21T06:00:25.898Z,19.90
2018-06-21T06:02:54.631Z,21.87
2018-06-21T06:05:23.291Z,22.13
2018-06-21T06:07:51.896Z,20.80
2018-06-21T06:10:21.294Z,23.13
2018-06-21T06:12:49.847Z,22.50
2018-06-21T06:15:18.389Z,21.50
2018-06-21T06:17:46.894Z,23.83
2018-06-21T06:20:15.657Z,23.93
2018-06-21T06:22:44.170Z,24.37
2018-06-21T06:25:12.744Z,24.77
2018-06-21T06:27:41.247Z,25.23
2018-06-21T06:30:10.026Z,25.43
2018-06-21T06:32:39.067Z,24.40
2018-06-21T06:35:07.668Z,24.10
2018-06-21T06:37:36.342Z,24.87
2018-06-21T06:40:05.173Z,22.90
2018-06-21T06:42:33.745Z,22.00
2018-06-21T06:45:02.228Z,23.67
2018-06-21T06:47:30.399Z,24.40
2018-06-21T06:49:58.912Z,24.87
2018-06-21T06:52:27.584Z,24.40
2018-06-21T06:54:56.049Z,24.20
2018-06-21T06:57:25.081Z,25.20
2018-06-21T06:59:53.577Z,26.07
2018-06-21T07:02:22.070Z,23.17
2018-06-21T07:04:52.861Z,26.70
2018-06-21T07:07:21.497Z,24.60
2018-06-21T07:09:50.831Z,27.27
2018-06-21T07:12:20.163Z,25.30
2018-06-21T07:14:49.658Z,23.83
2018-06-21T07:17:18.827Z,27.40
2018-06-21T07:19:47.331Z,26.23
2018-06-21T07:22:16.094Z,28.23
2018-06-21T07:24:44.753Z,27.40
2018-06-21T07:27:13.746Z,25.37
2018-06-21T07:29:42.455Z,25.43
2018-06-21T07:32:11.760Z,23.93
2018-06-21T07:34:40.261Z,23.10
2018-06-21T07:37:12.903Z,24.00
2018-06-21T07:39:42.024Z,22.43
2018-06-21T07:42:13.562Z,23.00
2018-06-21T07:44:42.611Z,22.93
2018-06-21T07:47:12.010Z,22.50
2018-06-21T07:49:40.214Z,19.60
2018-06-21T07:52:09.403Z,12.73
2018-06-21T07:54:38.314Z,10.80
2018-06-21T07:57:06.963Z,9.93
2018-06-21T07:59:35.585Z,10.43
2018-06-21T08:02:04.333Z,9.57
2018-06-21T08:04:32.890Z,9.37
2018-06-21T08:07:01.375Z,8.27
2018-06-21T08:09:30.146Z,8.43
2018-06-21T08:11:58.649Z,7.33
2018-06-21T08:14:27.303Z,6.90
2018-06-21T08:16:55.913Z,6.97
2018-06-21T08:19:24.793Z,7.17
2018-06-21T08:21:53.572Z,5.63
2018-06-21T08:24:22.220Z,7.20
2018-06-21T08:26:50.956Z,5.53
2018-06-21T08:29:19.676Z,5.40
2018-06-21T08:31:48.412Z,4.37
2018-06-21T08:34:17.101Z,4.53
2018-06-21T08:36:45.734Z,4.13
2018-06-21T08:39:14.425Z,4.17
2018-06-21T08:41:42.874Z,3.63
2018-06-21T08:44:11.417Z,3.50
2018-06-21T08:46:39.869Z,3.60
2018-06-21T08:49:08.567Z,3.60
2018-06-21T08:51:37.290Z,3.20
2018-06-21T08:54:05.846Z,4.13
2018-06-21T08:56:34.022Z,3.53
2018-06-21T08:59:02.465Z,3.87
2018-06-21T09:01:31.024Z,3.43
2018-06-21T09:03:59.531Z,2.83
2018-06-21T09:06:28.260Z,3.80
2018-06-21T09:08:57.348Z,3.77
2018-06-21T09:11:25.864Z,3.87
2018-06-21T09:13:54.324Z,3.27
2018-06-21T09:16:22.814Z,3.80
2018-06-21T09:18:52.086Z,3.80
2018-06-21T09:21:20.680Z,3.90
2018-06-21T09:23:49.706Z,3.93
2018-06-21T09:26:18.471Z,3.87
2018-06-21T09:28:47.226Z,4.50
2018-06-21T09:31:15.902Z,4.30
2018-06-21T09:33:44.440Z,4.20
2018-06-21T09:36:13.137Z,4.20
2018-06-21T09:38:46.884Z,5.30
2018-06-21T09:41:20.596Z,3.50
2018-06-21T09:44:03.830Z,4.23
2018-06-21T09:46:33.877Z,2.77
2018-06-21T09:48:56.984Z,3.40
2018-06-21T09:51:25.974Z,3.02
2018-06-21T09:53:54.601Z,2.92
2018-06-21T09:56:23.117Z,3.27
2018-06-21T09:58:52.487Z,3.33
2018-06-21T10:01:21.032Z,3.47
2018-06-21T10:03:49.512Z,3.97
2018-06-21T10:06:18.108Z,3.07
2018-06-21T10:08:46.601Z,3.70
2018-06-21T10:11:15.132Z,4.03
2018-06-21T10:13:43.636Z,3.00
2018-06-21T10:16:12.701Z,3.03
2018-06-21T10:18:41.289Z,3.07
2018-06-21T10:21:09.934Z,2.63
2018-06-21T10:23:38.575Z,2.80
2018-06-21T10:26:07.102Z,2.63
2018-06-21T10:28:35.686Z,3.10
2018-06-21T10:31:04.198Z,3.60
2018-06-21T10:33:32.708Z,4.50
2018-06-21T10:36:01.783Z,3.23
2018-06-21T10:38:30.619Z,3.43
2018-06-21T10:40:59.565Z,2.77
2018-06-21T10:43:28.137Z,2.93
2018-06-21T10:45:56.709Z,3.63
2018-06-21T10:48:25.253Z,3.20
2018-06-21T10:50:53.856Z,3.23
2018-06-21T10:53:22.835Z,2.63
2018-06-21T10:55:51.871Z,2.80
2018-06-21T10:58:20.419Z,2.70
2018-06-21T11:00:49.348Z,2.43
2018-06-21T11:03:18.486Z,3.27
2018-06-21T11:05:48.305Z,2.43
2018-06-21T11:08:16.994Z,2.40
2018-06-21T11:10:45.573Z,2.50
2018-06-21T11:13:14.294Z,2.77
2018-06-21T11:15:43.955Z,2.60
2018-06-21T11:18:12.450Z,2.07
2018-06-21T11:20:40.908Z,2.50
2018-06-21T11:23:09.521Z,2.10
2018-06-21T11:25:38.346Z,2.97
2018-06-21T11:28:07.023Z,2.07
2018-06-21T11:30:35.418Z,2.20
2018-06-21T11:33:03.937Z,2.00
2018-06-21T11:35:32.408Z,2.20
2018-06-21T11:38:00.979Z,2.13
2018-06-21T11:40:29.480Z,2.00
2018-06-21T11:42:57.965Z,1.90
2018-06-21T11:45:26.426Z,1.90
2018-06-21T11:47:55.188Z,1.70
2018-06-21T11:50:23.641Z,2.13
2018-06-21T11:52:52.398Z,1.90
2018-06-21T11:55:21.148Z,2.00
2018-06-21T11:57:50.356Z,2.33
2018-06-21T12:00:18.948Z,1.70
2018-06-21T12:02:47.530Z,1.70
2018-06-21T12:05:16.042Z,1.73
2018-06-21T12:07:44.537Z,2.00
2018-06-21T12:10:13.556Z,1.70
2018-06-21T12:12:42.005Z,2.13
2018-06-21T12:15:10.537Z,2.67
2018-06-21T12:17:39.487Z,1.97
2018-06-21T12:20:07.960Z,2.30
2018-06-21T12:22:36.538Z,1.80
2018-06-21T12:25:05.173Z,2.10
2018-06-21T12:27:33.917Z,2.30
2018-06-21T12:30:02.634Z,1.80
2018-06-21T12:32:31.097Z,2.20
2018-06-21T12:34:59.741Z,2.10
2018-06-21T12:37:28.306Z,1.80
2018-06-21T12:39:57.169Z,1.80
2018-06-21T12:42:25.764Z,2.40
2018-06-21T12:44:54.305Z,2.60
2018-06-21T12:47:22.822Z,2.37
2018-06-21T12:49:51.354Z,2.07
2018-06-21T12:52:20.004Z,2.67
2018-06-21T12:54:48.462Z,2.23
2018-06-21T12:57:17.281Z,1.60
2018-06-21T12:59:45.762Z,2.40
2018-06-21T13:02:14.303Z,2.50
2018-06-21T13:04:43.187Z,2.53
2018-06-21T13:07:11.741Z,3.90
2018-06-21T13:09:51.583Z,2.40
2018-06-21T13:12:32.367Z,2.87
2018-06-21T13:15:00.894Z,2.60
2018-06-21T13:17:30.686Z,2.00
2018-06-21T13:20:00.400Z,2.20
2018-06-21T13:22:29.504Z,2.10
2018-06-21T13:24:57.798Z,1.90
2018-06-21T13:27:26.371Z,2.70
2018-06-21T13:29:54.886Z,2.50
2018-06-21T13:32:23.470Z,2.27
2018-06-21T13:34:52.116Z,2.17
2018-06-21T13:37:20.644Z,2.57
2018-06-21T13:39:49.099Z,2.67
2018-06-21T13:42:18.058Z,3.10
2018-06-21T13:44:46.519Z,3.00
2018-06-21T13:47:15.068Z,2.80
2018-06-21T13:49:43.682Z,2.97
2018-06-21T13:52:12.235Z,2.77
2018-06-21T13:54:40.740Z,2.40
2018-06-21T13:57:09.271Z,3.40
2018-06-21T13:59:37.830Z,2.47
2018-06-21T14:02:06.524Z,2.60
2018-06-21T14:04:35.241Z,1.80
2018-06-21T14:07:03.749Z,2.43
2018-06-21T14:09:32.293Z,2.93
2018-06-21T14:12:01.033Z,1.80
2018-06-21T14:14:29.682Z,3.67
2018-06-21T14:16:58.326Z,3.10
2018-06-21T14:19:26.892Z,2.77
2018-06-21T14:21:56.513Z,2.77
2018-06-21T14:24:25.020Z,2.60
2018-06-21T14:26:53.548Z,1.60
2018-06-21T14:29:21.999Z,2.00
2018-06-21T14:31:50.693Z,2.10
2018-06-21T14:34:19.549Z,2.37
2018-06-21T14:36:48.084Z,1.80
2018-06-21T14:39:16.609Z,2.43
2018-06-21T14:41:45.202Z,2.73
2018-06-21T14:44:13.869Z,2.67
2018-06-21T14:46:42.417Z,2.10
2018-06-21T14:49:11.015Z,2.10
2018-06-21T14:51:39.199Z,2.43
2018-06-21T14:54:07.835Z,2.30
2018-06-21T14:56:36.378Z,2.07
2018-06-21T14:59:04.994Z,2.10
2018-06-21T15:01:33.752Z,2.80
2018-06-21T15:04:02.284Z,1.93
2018-06-21T15:06:30.937Z,2.03
2018-06-21T15:08:59.543Z,2.70
2018-06-21T15:11:27.850Z,2.33
2018-06-21T15:13:56.474Z,2.50
2018-06-21T15:16:25.022Z,2.60
2018-06-21T15:18:53.585Z,2.40
2018-06-21T15:21:22.502Z,2.30
2018-06-21T15:23:51.004Z,2.23
2018-06-21T15:26:19.853Z,2.07
2018-06-21T15:28:48.396Z,2.53
2018-06-21T15:31:16.966Z,2.10
2018-06-21T15:33:45.506Z,2.27
2018-06-21T15:36:14.232Z,3.33
2018-06-21T15:38:42.732Z,4.50
2018-06-21T15:41:11.356Z,3.83
2018-06-21T15:43:41.086Z,2.90
2018-06-21T15:46:09.567Z,2.37
2018-06-21T15:48:38.234Z,2.50
2018-06-21T15:51:06.971Z,2.23
2018-06-21T15:53:35.266Z,2.63
2018-06-21T15:56:04.246Z,2.07
2018-06-21T15:58:33.409Z,1.80
2018-06-21T16:01:01.964Z,1.90
2018-06-21T16:03:30.526Z,2.77
2018-06-21T16:05:59.110Z,2.50
2018-06-21T16:08:27.806Z,2.50
2018-06-21T16:10:56.305Z,2.83
2018-06-21T16:13:25.215Z,3.30
2018-06-21T16:15:53.938Z,2.60
2018-06-21T16:18:22.924Z,2.40
2018-06-21T16:20:51.529Z,2.90
2018-06-21T16:23:20.691Z,2.13
2018-06-21T16:25:49.720Z,2.40
2018-06-21T16:28:18.239Z,2.07
2018-06-21T16:30:46.711Z,3.20
2018-06-21T16:33:15.316Z,3.47
2018-06-21T16:35:43.861Z,2.20
2018-06-21T16:38:12.636Z,3.00
2018-06-21T16:40:44.891Z,1.90
2018-06-21T16:43:13.493Z,2.20
2018-06-21T16:45:42.055Z,3.00
2018-06-21T16:48:10.892Z,2.83
2018-06-21T16:50:39.478Z,2.07
2018-06-21T16:53:08.036Z,1.77
2018-06-21T16:55:36.695Z,1.83
2018-06-21T16:58:06.481Z,2.30
2018-06-21T17:00:35.130Z,1.80
2018-06-21T17:03:03.723Z,1.90
2018-06-21T17:05:32.269Z,1.90
2018-06-21T17:08:00.845Z,1.67
2018-06-21T17:10:29.481Z,2.07
2018-06-21T17:12:57.955Z,1.93
2018-06-21T17:15:27.548Z,1.87
2018-06-21T17:17:56.313Z,1.40
2018-06-21T17:20:25.012Z,1.57
2018-06-21T17:22:53.523Z,1.40
2018-06-21T17:25:23.249Z,1.87
2018-06-21T17:27:51.880Z,1.30
2018-06-21T17:30:20.561Z,1.70
2018-06-21T17:32:49.134Z,1.50
2018-06-21T17:35:17.963Z,1.80
2018-06-21T17:37:46.419Z,1.37
2018-06-21T17:40:14.941Z,1.80
2018-06-21T17:42:43.085Z,1.60
2018-06-21T17:45:11.925Z,1.90
2018-06-21T17:47:40.865Z,2.10
2018-06-21T17:50:09.576Z,1.67
2018-06-21T17:52:39.712Z,1.70
2018-06-21T17:55:08.792Z,1.70
2018-06-21T17:57:37.516Z,1.90
2018-06-21T18:00:06.172Z,2.00
2018-06-21T18:02:34.994Z,1.87
2018-06-21T18:05:03.511Z,1.90
2018-06-21T18:07:32.379Z,1.73
2018-06-21T18:10:00.863Z,2.57
2018-06-21T18:12:29.449Z,1.90
2018-06-21T18:14:57.960Z,2.90
2018-06-21T18:17:26.586Z,2.30
2018-06-21T18:19:55.140Z,1.93
2018-06-21T18:22:24.014Z,1.80
2018-06-21T18:24:52.481Z,2.33
2018-06-21T18:27:21.178Z,1.70
2018-06-21T18:29:49.858Z,2.40
2018-06-21T18:32:18.398Z,1.93
2018-06-21T18:34:47.279Z,2.50
2018-06-21T18:37:16.637Z,1.60
2018-06-21T18:39:45.555Z,1.77
2018-06-21T18:42:14.321Z,2.10
2018-06-21T18:44:43.077Z,2.50
2018-06-21T18:47:12.097Z,1.70
2018-06-21T18:49:40.660Z,1.60
2018-06-21T18:52:10.477Z,2.00
2018-06-21T18:54:39.580Z,2.73
2018-06-21T18:57:08.065Z,3.53
2018-06-21T18:59:37.575Z,3.00
2018-06-21T19:02:06.724Z,1.67
2018-06-21T19:04:35.506Z,2.80
2018-06-21T19:07:09.395Z,2.07
2018-06-21T19:09:43.854Z,2.63
2018-06-21T19:12:14.368Z,3.57
2018-06-21T19:14:42.551Z,3.87
2018-06-21T19:17:11.477Z,2.53
2018-06-21T19:19:40.064Z,2.63
2018-06-21T19:22:08.984Z,2.67
2018-06-21T19:24:37.930Z,2.63
2018-06-21T19:27:07.798Z,2.53
2018-06-21T19:29:37.322Z,4.23
2018-06-21T19:32:06.008Z,2.97
2018-06-21T19:34:34.514Z,2.57
2018-06-21T19:37:03.906Z,3.07
2018-06-21T19:39:32.784Z,2.13
2018-06-21T19:42:01.653Z,2.80
2018-06-21T19:44:30.609Z,2.40
2018-06-21T19:46:59.148Z,2.67
2018-06-21T19:49:28.913Z,2.40
2018-06-21T19:51:57.383Z,2.37
2018-06-21T19:54:26.833Z,2.47
2018-06-21T19:56:55.762Z,3.50
2018-06-21T19:59:25.269Z,2.67
2018-06-21T20:01:54.446Z,2.83
2018-06-21T20:04:24.307Z,2.43
2018-06-21T20:06:52.936Z,2.90
2018-06-21T20:09:21.624Z,2.87
2018-06-21T20:11:50.742Z,3.50
2018-06-21T20:14:19.390Z,3.67
2018-06-21T20:16:48.583Z,3.00
2018-06-21T20:19:18.674Z,3.43
2018-06-21T20:21:47.277Z,2.73
2018-06-21T20:24:16.063Z,3.93
2018-06-21T20:26:44.577Z,3.00
2018-06-21T20:29:19.070Z,4.00
2018-06-21T20:31:48.097Z,3.60
2018-06-21T20:34:16.721Z,2.90
2018-06-21T20:36:46.335Z,2.80
2018-06-21T20:39:14.830Z,3.00
2018-06-21T20:41:44.008Z,2.67
2018-06-21T20:44:12.206Z,2.93
2018-06-21T20:46:40.701Z,3.13
2018-06-21T20:49:09.244Z,3.00
2018-06-21T20:51:38.212Z,3.17
2018-06-21T20:54:06.783Z,3.90
2018-06-21T20:56:35.368Z,2.87
2018-06-21T20:59:03.931Z,2.73
2018-06-21T21:01:32.469Z,3.40
2018-06-21T21:04:01.423Z,3.20
2018-06-21T21:06:30.135Z,3.37
2018-06-21T21:08:58.751Z,2.87
2018-06-21T21:11:27.361Z,2.77
2018-06-21T21:13:56.364Z,2.73
2018-06-21T21:16:25.022Z,3.10
2018-06-21T21:18:53.841Z,2.70
2018-06-21T21:21:22.462Z,2.50
2018-06-21T21:23:51.015Z,2.83
2018-06-21T21:26:19.689Z,2.67
2018-06-21T21:28:48.261Z,2.50
2018-06-21T21:31:17.070Z,3.50
2018-06-21T21:33:45.653Z,2.97
2018-06-21T21:36:14.368Z,3.40
2018-06-21T21:38:43.097Z,3.57
2018-06-21T21:41:11.566Z,3.07
2018-06-21T21:43:39.700Z,2.60
2018-06-21T21:46:13.471Z,2.90
2018-06-21T21:48:42.807Z,2.40
2018-06-21T21:51:11.888Z,4.97
2018-06-21T21:53:41.496Z,2.80
2018-06-21T21:56:10.554Z,2.93
2018-06-21T21:58:40.342Z,3.33
2018-06-21T22:01:08.820Z,3.00
2018-06-21T22:03:37.107Z,3.00
2018-06-21T22:06:05.808Z,3.40
2018-06-21T22:08:34.301Z,2.90
2018-06-21T22:11:02.806Z,3.20
2018-06-21T22:13:31.860Z,3.37
2018-06-21T22:16:00.355Z,3.50
2018-06-21T22:18:28.884Z,3.20
2018-06-21T22:20:57.770Z,3.40
2018-06-21T22:23:26.589Z,4.57
2018-06-21T22:25:55.172Z,3.33
2018-06-21T22:28:23.990Z,3.53
2018-06-21T22:30:52.522Z,3.13
2018-06-21T22:33:20.933Z,3.60
2018-06-21T22:35:49.560Z,3.00
2018-06-21T22:38:17.724Z,3.47
2018-06-21T22:40:45.940Z,3.83
2018-06-21T22:43:14.488Z,2.83
2018-06-21T22:45:42.961Z,3.17
2018-06-21T22:48:11.495Z,3.77
2018-06-21T22:50:40.105Z,3.63
2018-06-21T22:53:08.623Z,3.77
2018-06-21T22:55:37.179Z,3.20
2018-06-21T22:58:05.779Z,3.90
2018-06-21T23:00:34.231Z,4.87
2018-06-21T23:03:02.676Z,3.63
2018-06-21T23:05:31.652Z,4.70
2018-06-21T23:08:00.101Z,3.80
2018-06-21T23:10:28.683Z,4.23
2018-06-21T23:12:57.602Z,3.80
2018-06-21T23:15:26.172Z,4.70
2018-06-21T23:17:55.138Z,4.30
2018-06-21T23:20:23.684Z,4.77
2018-06-21T23:22:52.449Z,5.13
2018-06-21T23:25:20.698Z,4.23
2018-06-21T23:27:49.472Z,4.27
2018-06-21T23:30:17.926Z,3.20
2018-06-21T23:32:46.505Z,4.20
2018-06-21T23:35:15.060Z,4.40
2018-06-21T23:37:44.142Z,4.43
2018-06-21T23:40:12.605Z,4.60
2018-06-21T23:42:41.093Z,3.47
2018-06-21T23:45:09.792Z,3.90
2018-06-21T23:47:38.204Z,3.13
2018-06-21T23:50:07.189Z,4.20
2018-06-21T23:52:36.053Z,4.80
2018-06-21T23:55:04.674Z,5.53
2018-06-21T23:57:33.702Z,4.53
